Time;durP1;ratioP1;P1;durP2;ratioP2;P2;SDS_P1;SDS_P2;PMS_P1;PMS_P2;Temp;Humidity;BMP_temperature;BMP_pressure;BME280_temperature;BME280_humidity;BME280_pressure;Samples;Min_cycle;Max_cycle;Signal;HPM_P1;HPM_P2
2022/08/07 00:01:00;;;;;;;3.70;1.50;;;;;;;14.08;49.08;100805.59;10337951;28;20901;-84
2022/08/07 00:06:22;;;;;;;3.38;1.50;;;;;;;13.96;49.28;100793.19;10345054;28;20054;-84
2022/08/07 00:11:34;;;;;;;4.18;1.70;;;;;;;14.00;49.33;100793.84;10354667;28;20141;-84
2022/08/07 00:17:00;;;;;;;2.50;1.25;;;;;;;13.84;50.16;100791.28;10340021;28;20950;-84
2022/08/07 00:22:03;;;;;;;2.40;1.30;;;;;;;13.81;49.65;100794.09;10337691;28;20075;-84
2022/08/07 00:27:05;;;;;;;3.45;1.20;;;;;;;13.73;49.81;100789.31;10327742;28;20081;-84
2022/08/07 00:32:12;;;;;;;5.30;1.30;;;;;;;13.63;50.18;100782.03;10333849;28;20072;-84
2022/08/07 00:37:16;;;;;;;3.72;1.40;;;;;;;13.55;50.46;100782.50;10347415;28;20058;-84
2022/08/07 00:42:17;;;;;;;3.35;1.40;;;;;;;13.57;50.47;100777.16;10361605;28;20488;-83
2022/08/07 00:47:30;;;;;;;5.57;1.20;;;;;;;13.48;50.57;100775.91;10353665;28;20065;-84
2022/08/07 00:52:52;;;;;;;3.20;1.33;;;;;;;13.38;50.93;100779.09;10328954;28;20508;-84
2022/08/07 00:57:53;;;;;;;2.55;1.20;;;;;;;13.31;51.20;100775.97;10336643;28;20062;-84
2022/08/07 01:09:19;;;;;;;3.88;1.10;;;;;;;13.11;51.48;100755.28;10332933;28;20129;-84
2022/08/07 01:14:41;;;;;;;4.95;1.50;;;;;;;13.12;51.89;100750.88;10344506;28;20054;-84
2022/08/07 01:19:46;;;;;;;4.25;1.30;;;;;;;13.07;51.68;100755.56;10334505;28;20047;-83
2022/08/07 01:24:55;;;;;;;6.68;1.40;;;;;;;12.80;51.98;100745.66;10336910;28;20065;-83
2022/08/07 01:29:58;;;;;;;3.42;1.30;;;;;;;12.66;52.21;100745.56;10325764;28;20049;-83
2022/08/07 01:35:01;;;;;;;4.50;1.50;;;;;;;12.61;52.40;100755.50;10331467;28;20144;-83
2022/08/07 01:40:05;;;;;;;1.88;1.13;;;;;;;12.58;52.68;100734.66;10329379;28;20061;-82
2022/08/07 01:45:15;;;;;;;;;;;;;;;12.28;53.56;100736.34;10333550;28;20076;-83
2022/08/07 01:50:25;;;;;;;2.47;1.30;;;;;;;12.44;52.96;100739.81;10334558;28;20382;-83
2022/08/07 01:55:36;;;;;;;2.08;1.30;;;;;;;12.39;53.24;100744.47;10318952;28;20050;-83
2022/08/07 02:00:39;;;;;;;3.08;1.30;;;;;;;12.41;53.24;100750.50;10323724;28;20060;-83
2022/08/07 02:06:03;;;;;;;2.10;1.40;;;;;;;12.33;53.86;100746.59;10335566;28;20062;-83
2022/08/07 02:11:26;;;;;;;2.42;1.40;;;;;;;12.31;53.63;100744.06;10343675;28;20389;-83
2022/08/07 02:16:51;;;;;;;2.65;1.42;;;;;;;12.28;54.00;100746.81;10323328;28;20431;-83
2022/08/07 02:21:55;;;;;;;2.88;1.40;;;;;;;12.28;53.89;100746.81;10344003;28;20057;-83
2022/08/07 02:27:01;;;;;;;3.10;1.50;;;;;;;12.29;53.77;100745.91;10323876;28;20060;-83
2022/08/07 02:32:06;;;;;;;4.15;1.30;;;;;;;12.28;53.85;100740.69;10328765;28;20515;-83
2022/08/07 02:37:13;;;;;;;1.70;1.20;;;;;;;12.20;54.06;100738.50;10335362;28;20141;-83
2022/08/07 02:42:17;;;;;;;3.05;1.60;;;;;;;12.13;54.06;100744.97;10353177;28;20054;-83
2022/08/07 02:47:21;;;;;;;3.28;1.45;;;;;;;11.85;54.51;100742.97;10354880;28;20206;-83
2022/08/07 02:52:40;;;;;;;2.83;1.38;;;;;;;11.79;55.29;100742.44;10360994;28;20054;-83
2022/08/07 02:57:51;;;;;;;2.20;1.40;;;;;;;11.71;55.06;100750.69;10356610;28;20545;-84
2022/08/07 03:02:53;;;;;;;1.80;1.30;;;;;;;11.68;54.99;100744.78;10333639;28;20468;-83
2022/08/07 03:07:57;;;;;;;2.78;1.40;;;;;;;11.64;55.35;100749.31;10333811;28;20066;-83
2022/08/07 03:13:15;;;;;;;2.10;1.38;;;;;;;11.68;55.03;100744.78;10340568;28;20046;-83
2022/08/07 03:18:21;;;;;;;4.88;1.42;;;;;;;11.64;55.24;100738.00;10333928;28;20132;-83
2022/08/07 03:23:37;;;;;;;2.90;1.30;;;;;;;11.58;55.67;100744.38;10340782;28;20056;-82
2022/08/07 03:29:02;;;;;;;3.78;1.33;;;;;;;11.53;55.49;100735.06;10346818;28;20120;-83
2022/08/07 03:34:06;;;;;;;5.03;1.60;;;;;;;11.46;55.59;100731.91;10331447;28;20076;-82
2022/08/07 03:39:11;;;;;;;4.63;1.50;;;;;;;11.50;55.53;100735.25;10347215;28;20675;-83
2022/08/07 03:44:14;;;;;;;4.78;1.50;;;;;;;11.41;55.80;100726.06;10364984;28;20081;-83
2022/08/07 03:49:22;;;;;;;2.45;1.40;;;;;;;11.33;55.88;100728.22;10322150;28;20057;-83
2022/08/07 03:54:28;;;;;;;2.67;1.42;;;;;;;11.29;55.97;100727.53;10340376;28;20060;-82
2022/08/07 03:59:50;;;;;;;3.25;1.40;;;;;;;11.28;55.94;100728.47;10326259;28;20054;-82
2022/08/07 04:05:06;;;;;;;1.88;1.40;;;;;;;11.30;55.72;100729.22;10329346;28;20072;-82
2022/08/07 04:10:08;;;;;;;3.60;1.40;;;;;;;11.34;55.91;100729.09;10340074;28;20050;-82
2022/08/07 04:15:19;;;;;;;1.60;1.20;;;;;;;11.31;55.78;100727.47;10327554;28;20054;-82
2022/08/07 04:20:24;;;;;;;5.03;1.60;;;;;;;11.32;55.98;100730.94;10337515;28;20053;-82
2022/08/07 04:25:26;;;;;;;2.65;1.45;;;;;;;11.25;56.03;100735.63;10326450;28;20523;-82
2022/08/07 04:30:30;;;;;;;2.70;1.40;;;;;;;11.05;56.29;100736.59;10340999;28;20693;-82
2022/08/07 04:35:46;;;;;;;2.25;1.45;;;;;;;11.04;56.49;100752.38;10346550;28;20621;-82
2022/08/07 04:40:52;;;;;;;2.85;1.48;;;;;;;11.17;56.27;100756.09;10333425;28;20228;-82
2022/08/07 04:46:07;;;;;;;2.30;1.30;;;;;;;12.62;54.28;100751.09;10318149;28;20062;-82
2022/08/07 04:51:27;;;;;;;1.95;1.40;;;;;;;15.69;47.67;100740.78;10349130;28;20049;-82
2022/08/07 04:56:51;;;;;;;4.55;1.55;;;;;;;17.83;42.70;100730.34;10323586;28;20058;-82
2022/08/07 05:02:19;;;;;;;2.77;1.30;;;;;;;19.99;38.71;100731.09;10338070;28;20654;-83
2022/08/07 05:07:29;;;;;;;3.87;1.40;;;;;;;21.43;36.38;100732.28;10327587;28;20468;-83
2022/08/07 05:12:43;;;;;;;6.70;1.30;;;;;;;22.76;33.42;100719.50;10350832;28;20472;-84
2022/08/07 05:18:11;;;;;;;1.67;1.20;;;;;;;23.07;32.06;100724.31;10338631;28;20301;-84
2022/08/07 05:23:21;;;;;;;3.05;1.30;;;;;;;21.67;33.57;100730.00;10341852;28;20579;-84
2022/08/07 05:28:35;;;;;;;2.47;1.10;;;;;;;19.15;37.80;100742.63;10330923;28;20101;-84
2022/08/07 05:33:42;;;;;;;2.08;1.10;;;;;;;17.61;40.06;100752.28;10330676;28;20088;-86
2022/08/07 05:39:05;;;;;;;2.03;1.23;;;;;;;16.65;42.10;100765.59;10333458;28;20165;-84
2022/08/07 05:44:28;;;;;;;5.85;1.10;;;;;;;15.92;43.77;100763.75;10334098;28;20145;-84
2022/08/07 05:49:31;;;;;;;2.10;1.20;;;;;;;15.36;45.01;100773.69;10333536;28;20057;-84
2022/08/07 05:54:41;;;;;;;2.58;1.10;;;;;;;15.08;45.71;100776.44;10350205;28;20530;-84
2022/08/07 05:59:58;;;;;;;2.33;1.30;;;;;;;15.01;46.29;100771.66;10322740;28;20124;-84
2022/08/07 06:05:14;;;;;;;2.13;1.20;;;;;;;14.98;46.92;100774.50;10325987;28;20072;-84
2022/08/07 06:10:16;;;;;;;3.10;1.10;;;;;;;15.02;47.05;100779.47;10324152;28;20038;-84
2022/08/07 06:15:20;;;;;;;2.83;1.17;;;;;;;15.16;47.06;100789.13;10345057;28;20049;-84
2022/08/07 06:20:42;;;;;;;1.70;1.10;;;;;;;15.32;46.79;100784.53;10345374;28;20507;-84
2022/08/07 06:26:04;;;;;;;2.08;1.10;;;;;;;15.32;46.90;100788.03;10336723;28;20093;-83
2022/08/07 06:31:07;;;;;;;2.22;1.15;;;;;;;15.23;46.80;100785.13;10344770;28;20128;-84
2022/08/07 06:36:09;;;;;;;1.95;1.00;;;;;;;15.31;46.24;100777.56;10354318;28;20062;-83
2022/08/07 06:41:42;;;;;;;2.83;1.10;;;;;;;15.28;46.25;100773.38;10350243;28;20066;-84
2022/08/07 06:47:03;;;;;;;1.75;1.00;;;;;;;15.60;44.38;100767.75;10346896;28;20082;-84
2022/08/07 06:52:14;;;;;;;3.63;1.13;;;;;;;15.81;43.62;100767.16;10333717;28;20055;-84
2022/08/07 06:57:33;;;;;;;1.42;0.98;;;;;;;15.80;43.28;100762.81;10341113;28;20061;-84
2022/08/07 07:02:50;;;;;;;2.35;1.20;;;;;;;15.97;42.70;100762.53;10340674;28;20073;-84
2022/08/07 07:08:01;;;;;;;2.75;1.10;;;;;;;16.20;42.65;100764.38;10344576;28;20547;-84
2022/08/07 07:13:18;;;;;;;4.55;1.25;;;;;;;16.12;41.84;100761.44;10344467;28;20930;-84
2022/08/07 07:18:45;;;;;;;2.38;1.08;;;;;;;16.32;42.12;100756.56;10345400;28;20054;-84
2022/08/07 07:23:49;;;;;;;2.33;1.20;;;;;;;16.44;41.56;100746.03;10340264;28;20320;-84
2022/08/07 07:29:13;;;;;;;2.88;1.30;;;;;;;16.68;41.38;100749.56;10334578;28;20137;-84
2022/08/07 07:34:39;;;;;;;2.90;1.20;;;;;;;16.83;40.67;100756.34;10366960;28;20064;-85
2022/08/07 07:39:45;;;;;;;1.73;1.00;;;;;;;17.31;40.43;100738.69;10343557;28;20054;-85
2022/08/07 07:44:58;;;;;;;5.43;1.20;;;;;;;18.88;37.82;100728.09;10337282;28;20706;-84
2022/08/07 07:50:00;;;;;;;2.92;1.10;;;;;;;20.49;35.47;100722.19;10331952;28;20460;-85
2022/08/07 07:55:24;;;;;;;2.03;0.90;;;;;;;21.86;32.87;100713.97;10341961;28;20507;-85
2022/08/07 08:00:39;;;;;;;2.38;1.00;;;;;;;22.16;32.21;100711.09;10334049;28;20054;-85
2022/08/07 08:05:42;;;;;;;5.75;1.20;;;;;;;23.20;30.96;100694.56;10339230;28;20066;-85
2022/08/07 08:10:56;;;;;;;2.13;1.02;;;;;;;23.68;29.28;100689.59;10337210;28;20055;-85
2022/08/07 08:16:01;;;;;;;3.03;0.95;;;;;;;23.64;28.55;100688.25;10352090;28;20128;-85
2022/08/07 08:21:04;;;;;;;1.00;0.90;;;;;;;24.00;28.38;100680.97;10354010;28;20104;-85
2022/08/07 08:31:37;;;;;;;2.92;1.00;;;;;;;23.69;28.20;100677.09;10328873;28;20149;-85
2022/08/07 08:37:01;;;;;;;2.15;1.00;;;;;;;24.11;27.15;100672.69;10352867;28;20129;-85
2022/08/07 08:42:10;;;;;;;3.80;0.90;;;;;;;24.48;26.57;100662.44;10336047;28;20042;-85
2022/08/07 08:47:21;;;;;;;2.17;0.90;;;;;;;24.84;25.71;100665.72;10351236;28;20758;-86
2022/08/07 08:52:33;;;;;;;3.67;0.90;;;;;;;25.11;25.33;100654.69;10346549;28;20096;-85
2022/08/07 08:57:57;;;;;;;1.73;0.82;;;;;;;25.24;24.63;100651.53;10328466;28;20133;-85
2022/08/07 09:03:14;;;;;;;2.13;0.80;;;;;;;25.39;24.81;100644.50;10335753;28;20061;-85
2022/08/07 09:08:56;;;;;;;2.42;1.00;;;;;;;25.61;24.59;100636.59;10348449;28;20476;-85
2022/08/07 09:14:14;;;;;;;2.47;0.90;;;;;;;25.38;24.35;100632.97;10331753;28;20081;-85
2022/08/07 09:19:33;;;;;;;1.83;0.90;;;;;;;25.74;24.21;100628.84;10318635;28;20101;-85
2022/08/07 09:25:02;;;;;;;1.48;0.70;;;;;;;25.89;24.36;100626.31;10335340;28;20065;-86
2022/08/07 09:30:16;;;;;;;2.05;1.00;;;;;;;26.41;23.81;100616.69;10349776;28;20151;-85
2022/08/07 09:35:50;;;;;;;5.72;1.00;;;;;;;26.66;23.40;100618.22;10329965;28;20147;-85
2022/08/07 09:41:29;;;;;;;2.78;0.90;;;;;;;26.46;23.11;100606.25;10350337;28;20131;-86
2022/08/07 09:47:16;;;;;;;1.90;0.80;;;;;;;26.10;23.34;100610.47;10343295;28;20471;-86
2022/08/07 09:53:00;;;;;;;0.88;0.80;;;;;;;26.62;23.25;100592.78;10338900;28;20049;-86
2022/08/07 09:58:30;;;;;;;4.35;0.80;;;;;;;26.70;23.31;100586.50;10336177;28;20054;-86
2022/08/07 10:03:54;;;;;;;1.65;0.90;;;;;;;26.26;23.77;100580.88;10341414;28;20949;-86
2022/08/07 10:09:33;;;;;;;1.95;0.90;;;;;;;26.35;23.81;100566.44;10333583;28;20344;-85
2022/08/07 10:15:14;;;;;;;4.43;1.05;;;;;;;26.47;23.61;100554.28;10347761;28;20437;-85
2022/08/07 10:20:38;;;;;;;2.33;1.05;;;;;;;26.77;22.84;100554.41;10342258;28;20085;-86
2022/08/07 10:26:24;;;;;;;3.13;1.00;;;;;;;26.69;23.13;100541.88;10348753;28;20147;-86
2022/08/07 10:31:27;;;;;;;1.73;1.00;;;;;;;26.72;23.59;100538.84;10350330;28;20134;-85
2022/08/07 10:37:07;;;;;;;2.55;0.80;;;;;;;26.77;23.09;100531.09;10343289;28;20157;-85
2022/08/07 10:42:38;;;;;;;3.55;1.00;;;;;;;26.24;23.29;100534.63;10324739;28;20127;-86
2022/08/07 10:47:49;;;;;;;1.65;0.98;;;;;;;26.64;23.36;100526.34;10324299;28;20121;-86
2022/08/07 10:53:11;;;;;;;3.33;1.00;;;;;;;26.26;23.66;100527.25;10353995;28;20141;-86
2022/08/07 10:58:38;;;;;;;2.45;0.90;;;;;;;25.79;23.73;100519.28;10350413;28;20320;-86
2022/08/07 11:03:55;;;;;;;1.80;0.80;;;;;;;25.61;24.00;100525.94;10330382;28;20085;-86
2022/08/07 11:09:37;;;;;;;4.57;1.05;;;;;;;25.45;23.80;100517.94;10326426;28;20475;-85
2022/08/07 11:15:13;;;;;;;6.97;1.13;;;;;;;25.48;23.65;100513.09;10335007;28;20160;-85
2022/08/07 11:20:22;;;;;;;3.08;1.17;;;;;;;25.34;24.29;100502.25;10347552;28;20563;-86
2022/08/07 11:25:35;;;;;;;1.52;0.95;;;;;;;25.32;23.59;100489.03;10329689;28;20050;-86
2022/08/07 11:30:53;;;;;;;2.50;1.00;;;;;;;25.54;23.35;100485.59;10341307;28;20062;-86
2022/08/07 11:36:16;;;;;;;2.60;0.90;;;;;;;25.22;23.54;100483.03;10349015;28;20054;-86
2022/08/07 11:41:41;;;;;;;2.42;0.90;;;;;;;25.32;23.85;100466.75;10336810;28;20129;-85
2022/08/07 11:47:24;;;;;;;1.92;1.10;;;;;;;25.79;22.70;100464.88;10341594;28;20168;-85
2022/08/07 11:53:05;;;;;;;1.98;1.00;;;;;;;25.66;22.92;100465.47;10343217;28;20057;-86
2022/08/07 11:58:19;;;;;;;2.05;1.10;;;;;;;25.52;22.56;100460.00;10358704;28;20516;-85
2022/08/07 12:03:51;;;;;;;3.25;0.68;;;;;;;25.52;22.71;100460.00;10349994;28;20168;-86
2022/08/07 12:09:13;;;;;;;3.85;0.98;;;;;;;25.63;22.46;100454.28;10365143;28;20471;-86
2022/08/07 12:14:26;;;;;;;1.17;0.90;;;;;;;25.81;22.77;100460.19;10334698;28;20813;-86
2022/08/07 12:20:05;;;;;;;3.05;1.05;;;;;;;25.74;22.35;100460.06;10348647;28;20107;-86
2022/08/07 12:31:47;;;;;;;2.30;0.97;;;;;;;25.63;21.92;100447.03;10311064;28;20460;-86
2022/08/07 12:37:07;;;;;;;1.17;1.00;;;;;;;25.55;22.17;100439.06;10348415;28;20851;-86
2022/08/07 12:42:26;;;;;;;1.83;0.90;;;;;;;25.51;22.11;100434.25;10358705;28;20625;-81
2022/08/07 12:47:45;;;;;;;1.60;1.00;;;;;;;25.39;22.05;100436.47;10333809;28;20081;-81
2022/08/07 12:52:58;;;;;;;3.22;1.10;;;;;;;25.81;22.02;100447.59;10331251;28;20058;-80
2022/08/07 12:58:04;;;;;;;1.45;0.95;;;;;;;26.03;21.82;100429.91;10340127;28;20054;-81
2022/08/07 13:03:27;;;;;;;3.90;1.10;;;;;;;26.24;21.62;100426.56;10345295;28;20078;-81
2022/08/07 13:09:07;;;;;;;1.63;1.02;;;;;;;26.09;21.46;100418.47;10343557;28;20775;-81
2022/08/07 13:15:14;;;;;;;2.40;1.10;;;;;;;26.30;20.81;100418.59;10352935;28;20476;-81
2022/08/07 13:20:38;;;;;;;3.13;1.08;;;;;;;26.40;20.63;100407.66;10345645;28;20058;-81
2022/08/07 13:25:52;;;;;;;1.38;0.90;;;;;;;26.29;20.11;100408.06;10344542;28;20740;-81
2022/08/07 13:31:41;;;;;;;4.43;1.10;;;;;;;26.17;20.58;100405.00;10334485;28;20570;-81
2022/08/07 13:37:20;;;;;;;2.45;1.10;;;;;;;26.18;20.23;100411.22;10335169;28;20062;-81
2022/08/07 13:42:24;;;;;;;4.40;1.10;;;;;;;26.30;20.28;100391.78;10346112;28;20491;-81
2022/08/07 13:47:29;;;;;;;1.83;1.10;;;;;;;26.36;20.44;100377.69;10340160;28;20074;-81
2022/08/07 13:52:54;;;;;;;1.85;1.10;;;;;;;26.54;20.51;100380.84;10332632;28;20133;-81
2022/08/07 14:03:38;;;;;;;1.55;0.82;;;;;;;26.39;20.88;100380.00;10330483;28;20058;-81
2022/08/07 14:09:02;;;;;;;2.58;1.10;;;;;;;26.40;20.43;100370.09;10341915;28;20136;-81
2022/08/07 14:14:10;;;;;;;4.15;1.10;;;;;;;26.53;20.71;100372.97;10335510;28;20137;-81
2022/08/07 14:19:26;;;;;;;3.92;0.90;;;;;;;26.40;20.81;100351.31;10342043;28;20137;-81
2022/08/07 14:24:51;;;;;;;1.30;0.95;;;;;;;26.30;21.32;100356.94;10327006;28;20052;-81
2022/08/07 14:29:57;;;;;;;1.95;0.77;;;;;;;26.35;21.03;100353.72;10319235;28;20058;-81
2022/08/07 14:35:19;;;;;;;3.33;0.95;;;;;;;26.64;20.96;100345.72;10343049;28;20105;-81
2022/08/07 14:40:43;;;;;;;4.10;1.00;;;;;;;26.84;20.68;100328.03;10332494;28;20071;-81
2022/08/07 14:45:56;;;;;;;1.98;0.90;;;;;;;27.01;20.28;100332.19;10332507;28;20228;-81
2022/08/07 14:51:04;;;;;;;2.97;1.00;;;;;;;26.92;20.16;100322.56;10339606;28;20577;-81
2022/08/07 14:56:08;;;;;;;4.13;0.90;;;;;;;26.91;20.25;100330.81;10331087;28;20061;-81
2022/08/07 15:01:34;;;;;;;1.63;1.00;;;;;;;26.93;20.67;100321.56;10328152;28;20437;-81
2022/08/07 15:06:52;;;;;;;2.83;0.90;;;;;;;27.06;20.39;100320.88;10327145;28;20475;-81
2022/08/07 15:11:59;;;;;;;2.78;1.00;;;;;;;27.21;20.09;100313.66;10346670;28;20465;-81
2022/08/07 15:17:12;;;;;;;2.30;1.00;;;;;;;27.59;19.85;100308.88;10341693;28;20109;-81
2022/08/07 15:22:17;;;;;;;2.45;0.90;;;;;;;27.46;20.12;100307.72;10350259;28;20165;-81
2022/08/07 15:27:38;;;;;;;1.27;0.70;;;;;;;27.39;19.67;100312.22;10344627;28;20058;-81
2022/08/07 15:33:01;;;;;;;2.03;0.70;;;;;;;27.17;19.79;100313.22;10324966;28;20133;-81
2022/08/07 15:38:26;;;;;;;3.75;1.10;;;;;;;27.19;19.46;100311.16;10343744;28;20050;-81
2022/08/07 15:44:01;;;;;;;1.87;1.00;;;;;;;26.95;19.07;100306.09;10351246;28;20054;-81
2022/08/07 15:49:06;;;;;;;1.33;0.90;;;;;;;27.05;19.42;100298.59;10353289;28;20057;-81
2022/08/07 15:54:15;;;;;;;2.85;0.85;;;;;;;27.04;19.31;100285.31;10357344;28;21055;-81
2022/08/07 15:59:19;;;;;;;1.83;0.80;;;;;;;27.35;19.89;100284.06;10344244;28;20072;-81
2022/08/07 16:04:41;;;;;;;2.10;0.80;;;;;;;27.18;19.59;100287.16;10347432;28;20066;-81
2022/08/07 16:10:04;;;;;;;2.53;0.77;;;;;;;26.63;20.10;100276.97;10349601;28;20405;-81
2022/08/07 16:15:31;;;;;;;3.15;0.75;;;;;;;26.72;20.07;100270.50;10348545;28;20427;-81
2022/08/07 16:21:00;;;;;;;2.42;1.05;;;;;;;26.86;20.56;100264.28;10334811;28;20133;-81
2022/08/07 16:26:21;;;;;;;2.90;0.90;;;;;;;26.82;20.23;100272.88;10347816;28;20132;-81
2022/08/07 16:31:43;;;;;;;1.13;0.80;;;;;;;26.74;20.04;100273.00;10341556;28;20050;-81
2022/08/07 16:43:26;;;;;;;3.17;0.88;;;;;;;26.56;19.85;100268.88;10325253;28;20042;-81
2022/08/07 16:48:51;;;;;;;2.70;0.82;;;;;;;26.49;19.89;100269.75;10334587;28;20097;-81
2022/08/07 16:54:36;;;;;;;3.40;0.82;;;;;;;26.45;19.87;100273.81;10344141;28;20050;-81
2022/08/07 17:00:03;;;;;;;3.30;0.88;;;;;;;26.56;20.40;100273.38;10362791;28;20611;-81
2022/08/07 17:05:44;;;;;;;3.95;0.90;;;;;;;26.59;20.36;100264.94;10333949;28;20382;-81
2022/08/07 17:11:21;;;;;;;1.20;0.80;;;;;;;26.47;20.17;100259.19;10351589;28;20163;-81
2022/08/07 17:16:38;;;;;;;1.23;0.95;;;;;;;26.28;19.82;100262.44;10331988;28;20058;-81
2022/08/07 17:21:48;;;;;;;1.40;0.90;;;;;;;26.11;20.26;100260.13;10326360;28;20050;-81
2022/08/07 17:27:10;;;;;;;3.17;1.00;;;;;;;26.13;20.25;100263.44;10336193;28;20050;-81
2022/08/07 17:32:39;;;;;;;2.75;0.90;;;;;;;26.18;19.95;100271.78;10331979;28;20058;-81
2022/08/07 17:38:24;;;;;;;2.60;0.70;;;;;;;26.13;20.17;100266.13;10350500;28;20093;-81
2022/08/07 17:43:42;;;;;;;0.85;0.70;;;;;;;25.99;20.05;100266.94;10350196;28;20141;-81
2022/08/07 17:49:43;;;;;;;2.10;1.20;;;;;;;25.68;20.47;100265.19;10344278;28;20450;-81
2022/08/07 17:54:53;;;;;;;1.88;0.80;;;;;;;25.60;20.56;100262.56;10319969;28;20480;-81
2022/08/07 18:00:04;;;;;;;3.78;0.82;;;;;;;25.50;20.82;100264.66;10357867;28;20076;-81
2022/08/07 18:05:18;;;;;;;1.00;0.77;;;;;;;25.37;20.72;100267.09;10340799;28;20050;-81
2022/08/07 18:10:35;;;;;;;2.00;1.00;;;;;;;25.32;21.09;100274.81;10341538;28;20085;-81
2022/08/07 18:16:08;;;;;;;1.60;0.90;;;;;;;25.27;21.54;100279.03;10324082;28;20046;-81
2022/08/07 18:21:29;;;;;;;1.05;0.70;;;;;;;25.10;21.84;100281.81;10331639;28;20494;-81
2022/08/07 18:27:15;;;;;;;3.40;1.00;;;;;;;24.73;22.10;100276.34;10355320;28;20085;-81
2022/08/07 18:33:05;;;;;;;5.63;1.10;;;;;;;24.59;22.58;100286.88;10322642;28;20140;-81
2022/08/07 18:38:27;;;;;;;1.15;0.93;;;;;;;24.48;23.54;100295.25;10338433;28;20193;-81
2022/08/07 18:43:52;;;;;;;8.05;1.30;;;;;;;24.27;24.35;100307.34;10342261;28;20137;-81
2022/08/07 18:49:20;;;;;;;1.88;1.00;;;;;;;23.94;24.81;100311.03;10354918;28;20100;-81
2022/08/07 18:55:08;;;;;;;2.42;1.00;;;;;;;23.65;25.64;100318.72;10342945;28;20054;-81
2022/08/07 19:00:45;;;;;;;1.92;1.00;;;;;;;23.27;26.02;100336.13;10343111;28;20046;-81
2022/08/07 19:06:02;;;;;;;1.40;0.90;;;;;;;23.10;26.87;100329.09;10348312;28;20571;-81
2022/08/07 19:11:09;;;;;;;3.03;1.00;;;;;;;22.83;27.25;100336.50;10337427;28;20054;-81
2022/08/07 19:16:38;;;;;;;1.70;0.90;;;;;;;22.55;27.02;100341.16;10334433;28;20133;-81
2022/08/07 19:22:32;;;;;;;3.20;1.00;;;;;;;21.98;27.47;100353.22;10335120;28;20476;-81
2022/08/07 19:27:38;;;;;;;1.35;0.93;;;;;;;21.90;27.99;100361.97;10315279;28;20475;-81
2022/08/07 19:33:04;;;;;;;1.83;1.10;;;;;;;21.85;28.40;100355.44;10343647;28;20136;-81
2022/08/07 19:38:15;;;;;;;4.43;1.15;;;;;;;21.75;28.37;100365.34;10325678;28;20057;-81
2022/08/07 19:43:23;;;;;;;3.10;0.98;;;;;;;21.56;28.62;100373.47;10347657;28;20054;-81
2022/08/07 19:48:55;;;;;;;2.40;1.02;;;;;;;21.26;29.76;100379.94;10352223;28;20065;-81
2022/08/07 19:54:01;;;;;;;1.83;1.10;;;;;;;21.21;29.75;100386.69;10333625;28;20423;-81
2022/08/07 19:59:36;;;;;;;1.90;1.00;;;;;;;21.12;30.81;100390.22;10327303;28;20131;-81
2022/08/07 20:04:43;;;;;;;2.30;1.20;;;;;;;21.05;31.27;100392.63;10349020;28;20058;-81
2022/08/07 20:09:51;;;;;;;3.83;1.30;;;;;;;20.89;31.67;100400.41;10340778;28;20068;-81
2022/08/07 20:15:18;;;;;;;1.27;0.80;;;;;;;20.69;32.07;100398.81;10334401;28;20415;-81
2022/08/07 20:20:25;;;;;;;3.95;1.10;;;;;;;20.29;32.64;100401.69;10350387;28;20054;-81
2022/08/07 20:25:31;;;;;;;3.22;1.05;;;;;;;19.80;33.43;100407.09;10333933;28;20058;-81
2022/08/07 20:30:43;;;;;;;4.43;1.30;;;;;;;19.74;33.69;100412.97;10336918;28;20582;-81
2022/08/07 20:35:49;;;;;;;1.40;1.00;;;;;;;19.68;33.96;100406.41;10333555;28;20061;-82
2022/08/07 20:41:06;;;;;;;1.60;0.90;;;;;;;19.59;34.08;100415.19;10340056;28;20054;-81
2022/08/07 20:46:11;;;;;;;1.88;1.08;;;;;;;19.47;34.58;100416.28;10348667;28;20116;-82
2022/08/07 20:51:32;;;;;;;2.13;1.10;;;;;;;18.90;34.95;100419.53;10336417;28;20060;-81
2022/08/07 20:56:40;;;;;;;2.63;0.90;;;;;;;18.66;35.59;100424.31;10350274;28;20061;-81
2022/08/07 21:01:52;;;;;;;2.20;1.08;;;;;;;18.68;36.20;100430.31;10322849;28;20058;-81
2022/08/07 21:06:59;;;;;;;2.00;0.98;;;;;;;18.72;36.49;100434.38;10335219;28;20140;-81
2022/08/07 21:12:16;;;;;;;3.58;1.00;;;;;;;18.61;36.75;100452.97;10323522;28;20069;-81
2022/08/07 21:17:34;;;;;;;1.75;1.08;;;;;;;18.52;37.12;100457.25;10343465;28;20475;-81
2022/08/07 21:22:58;;;;;;;3.95;1.20;;;;;;;18.33;37.50;100466.88;10349652;28;20133;-81
2022/08/07 21:28:40;;;;;;;2.10;1.20;;;;;;;18.18;38.59;100465.47;10350876;28;20057;-81
2022/08/07 21:34:01;;;;;;;1.20;0.90;;;;;;;18.17;38.81;100463.78;10339146;28;20128;-81
2022/08/07 21:39:29;;;;;;;2.47;1.30;;;;;;;17.98;39.09;100463.59;10347433;28;20150;-81
2022/08/07 21:44:55;;;;;;;1.67;1.00;;;;;;;17.93;39.31;100471.94;10353480;28;20050;-81
2022/08/07 21:50:06;;;;;;;3.92;1.20;;;;;;;17.92;39.47;100469.41;10331855;28;20058;-81
2022/08/07 22:01:36;;;;;;;1.20;1.00;;;;;;;17.58;39.90;100473.94;10333299;28;20128;-81
2022/08/07 22:07:21;;;;;;;2.15;1.13;;;;;;;17.42;40.41;100469.06;10343243;28;20148;-81
2022/08/07 22:12:49;;;;;;;3.38;1.10;;;;;;;17.32;40.58;100476.00;10327889;28;20161;-81
2022/08/07 22:18:03;;;;;;;2.67;1.15;;;;;;;17.00;41.10;100472.38;10332533;28;20558;-81
2022/08/07 22:23:18;;;;;;;2.20;1.08;;;;;;;16.93;41.41;100487.03;10335182;28;20054;-80
2022/08/07 22:28:32;;;;;;;2.15;1.20;;;;;;;16.87;41.97;100490.97;10342004;28;20111;-81
2022/08/07 22:33:45;;;;;;;2.42;1.30;;;;;;;16.59;42.71;100490.59;10324397;28;20047;-81
2022/08/07 22:39:03;;;;;;;4.18;1.10;;;;;;;16.65;42.44;100490.94;10336408;28;20140;-81
2022/08/07 22:44:10;;;;;;;4.40;1.08;;;;;;;16.74;42.65;100484.13;10341666;28;20077;-81
2022/08/07 22:49:18;;;;;;;3.47;1.00;;;;;;;16.65;42.33;100492.75;10326582;28;20086;-81
2022/08/07 22:54:40;;;;;;;2.17;1.30;;;;;;;16.60;42.90;100489.59;10324168;28;20046;-81
2022/08/07 22:59:59;;;;;;;2.88;1.20;;;;;;;16.34;43.22;100491.56;10326211;28;20062;-80
2022/08/07 23:05:22;;;;;;;2.08;1.10;;;;;;;16.18;43.91;100497.09;10335785;28;20054;-81
2022/08/07 23:10:53;;;;;;;1.92;1.10;;;;;;;16.12;44.08;100497.56;10339269;28;20061;-81
2022/08/07 23:16:01;;;;;;;2.80;1.10;;;;;;;16.13;44.11;100501.03;10358263;28;20048;-81
2022/08/07 23:21:23;;;;;;;3.10;1.20;;;;;;;16.17;43.58;100507.78;10360169;28;20144;-80
2022/08/07 23:27:03;;;;;;;1.80;1.10;;;;;;;15.82;44.76;100494.53;10345990;28;20073;-80
2022/08/07 23:32:26;;;;;;;2.10;1.17;;;;;;;15.80;45.05;100493.78;10344350;28;20582;-81
2022/08/07 23:38:16;;;;;;;2.25;1.23;;;;;;;15.76;45.12;100488.84;10331306;28;20144;-81
2022/08/07 23:43:56;;;;;;;1.98;1.10;;;;;;;15.75;44.82;100497.72;10330376;28;20185;-81
2022/08/07 23:49:10;;;;;;;3.28;1.00;;;;;;;15.62;45.22;100494.28;10346718;28;20073;-81
2022/08/07 23:54:29;;;;;;;1.67;1.00;;;;;;;15.42;45.99;100493.03;10356273;28;20049;-80
